sensor_id;sensor_type;location;lat;lon;timestamp;temperature;humidity
21310;DHT22;10814;51.722;8.772;2024-03-22T00:01:03;9.80;99.90
21310;DHT22;10814;51.722;8.772;2024-03-22T00:03:28;9.90;99.90
21310;DHT22;10814;51.722;8.772;2024-03-22T00:05:55;9.90;99.90
21310;DHT22;10814;51.722;8.772;2024-03-22T00:08:20;9.90;99.90
21310;DHT22;10814;51.722;8.772;2024-03-22T00:10:46;9.90;99.90
21310;DHT22;10814;51.722;8.772;2024-03-22T00:13:11;9.90;99.90
21310;DHT22;10814;51.722;8.772;2024-03-22T00:15:37;10.00;99.90
21310;DHT22;10814;51.722;8.772;2024-03-22T00:18:03;10.00;99.90
21310;DHT22;10814;51.722;8.772;2024-03-22T00:20:28;10.00;99.90
21310;DHT22;10814;51.722;8.772;2024-03-22T00:22:54;10.00;99.90
21310;DHT22;10814;51.722;8.772;2024-03-22T00:25:19;10.00;99.90
21310;DHT22;10814;51.722;8.772;2024-03-22T00:27:45;10.00;99.90
21310;DHT22;10814;51.722;8.772;2024-03-22T00:30:11;10.00;99.90
21310;DHT22;10814;51.722;8.772;2024-03-22T00:32:36;10.00;99.90
21310;DHT22;10814;51.722;8.772;2024-03-22T00:35:02;10.00;99.90
21310;DHT22;10814;51.722;8.772;2024-03-22T00:37:28;10.00;99.90
21310;DHT22;10814;51.722;8.772;2024-03-22T00:39:53;10.00;99.90
21310;DHT22;10814;51.722;8.772;2024-03-22T00:42:19;10.00;99.90
21310;DHT22;10814;51.722;8.772;2024-03-22T00:44:44;10.00;99.90
21310;DHT22;10814;51.722;8.772;2024-03-22T00:47:10;10.10;99.90
21310;DHT22;10814;51.722;8.772;2024-03-22T00:49:35;10.00;99.90
21310;DHT22;10814;51.722;8.772;2024-03-22T00:52:01;10.00;99.90
21310;DHT22;10814;51.722;8.772;2024-03-22T00:54:26;10.00;99.90
21310;DHT22;10814;51.722;8.772;2024-03-22T00:56:52;10.00;99.90
21310;DHT22;10814;51.722;8.772;2024-03-22T00:59:18;10.10;99.90
21310;DHT22;10814;51.722;8.772;2024-03-22T01:01:43;10.10;99.90
21310;DHT22;10814;51.722;8.772;2024-03-22T01:04:09;10.00;99.90
21310;DHT22;10814;51.722;8.772;2024-03-22T01:06:35;10.00;99.90
21310;DHT22;10814;51.722;8.772;2024-03-22T01:09:00;10.00;99.90
21310;DHT22;10814;51.722;8.772;2024-03-22T01:11:28;10.00;99.90
21310;DHT22;10814;51.722;8.772;2024-03-22T01:13:53;10.00;99.90
21310;DHT22;10814;51.722;8.772;2024-03-22T01:16:19;10.00;99.90
21310;DHT22;10814;51.722;8.772;2024-03-22T01:18:44;10.00;99.90
21310;DHT22;10814;51.722;8.772;2024-03-22T01:21:10;10.00;99.90
21310;DHT22;10814;51.722;8.772;2024-03-22T01:23:35;10.00;99.90
21310;DHT22;10814;51.722;8.772;2024-03-22T01:26:01;10.10;99.90
21310;DHT22;10814;51.722;8.772;2024-03-22T01:28:26;10.10;99.90
21310;DHT22;10814;51.722;8.772;2024-03-22T01:30:52;10.10;99.90
21310;DHT22;10814;51.722;8.772;2024-03-22T01:33:18;10.10;99.90
21310;DHT22;10814;51.722;8.772;2024-03-22T01:35:43;10.00;99.90
21310;DHT22;10814;51.722;8.772;2024-03-22T01:38:09;10.00;99.90
21310;DHT22;10814;51.722;8.772;2024-03-22T01:40:34;10.00;99.90
21310;DHT22;10814;51.722;8.772;2024-03-22T01:43:00;10.00;99.90
21310;DHT22;10814;51.722;8.772;2024-03-22T01:45:27;10.00;99.90
21310;DHT22;10814;51.722;8.772;2024-03-22T01:47:56;10.00;99.90
21310;DHT22;10814;51.722;8.772;2024-03-22T01:50:23;10.00;99.90
21310;DHT22;10814;51.722;8.772;2024-03-22T01:52:49;10.00;99.90
21310;DHT22;10814;51.722;8.772;2024-03-22T01:55:14;10.00;99.90
21310;DHT22;10814;51.722;8.772;2024-03-22T01:57:40;10.00;99.90
21310;DHT22;10814;51.722;8.772;2024-03-22T02:00:06;9.90;99.90
21310;DHT22;10814;51.722;8.772;2024-03-22T02:02:34;10.00;99.90
21310;DHT22;10814;51.722;8.772;2024-03-22T02:05:10;10.00;99.90
21310;DHT22;10814;51.722;8.772;2024-03-22T02:07:36;10.00;99.90
21310;DHT22;10814;51.722;8.772;2024-03-22T02:10:02;10.00;99.90
21310;DHT22;10814;51.722;8.772;2024-03-22T02:12:27;10.00;99.90
21310;DHT22;10814;51.722;8.772;2024-03-22T02:14:53;10.10;99.90
21310;DHT22;10814;51.722;8.772;2024-03-22T02:17:19;10.10;99.90
21310;DHT22;10814;51.722;8.772;2024-03-22T02:19:44;10.10;99.90
21310;DHT22;10814;51.722;8.772;2024-03-22T02:22:10;10.10;99.90
21310;DHT22;10814;51.722;8.772;2024-03-22T02:24:35;10.20;99.90
21310;DHT22;10814;51.722;8.772;2024-03-22T02:27:01;10.20;99.90
21310;DHT22;10814;51.722;8.772;2024-03-22T02:29:26;10.30;99.90
21310;DHT22;10814;51.722;8.772;2024-03-22T02:31:52;10.30;99.90
21310;DHT22;10814;51.722;8.772;2024-03-22T02:34:17;10.30;99.90
21310;DHT22;10814;51.722;8.772;2024-03-22T02:36:43;10.30;99.90
21310;DHT22;10814;51.722;8.772;2024-03-22T02:39:09;10.40;99.90
21310;DHT22;10814;51.722;8.772;2024-03-22T02:41:34;10.40;99.90
21310;DHT22;10814;51.722;8.772;2024-03-22T02:44:00;10.40;99.90
21310;DHT22;10814;51.722;8.772;2024-03-22T02:46:25;10.40;99.90
21310;DHT22;10814;51.722;8.772;2024-03-22T02:48:51;10.40;99.90
21310;DHT22;10814;51.722;8.772;2024-03-22T02:51:16;10.50;99.90
21310;DHT22;10814;51.722;8.772;2024-03-22T02:53:42;10.50;99.90
21310;DHT22;10814;51.722;8.772;2024-03-22T02:56:07;10.50;99.90
21310;DHT22;10814;51.722;8.772;2024-03-22T02:58:34;10.50;99.90
21310;DHT22;10814;51.722;8.772;2024-03-22T03:01:02;10.50;99.90
21310;DHT22;10814;51.722;8.772;2024-03-22T03:03:28;10.50;99.90
21310;DHT22;10814;51.722;8.772;2024-03-22T03:05:54;10.50;99.90
21310;DHT22;10814;51.722;8.772;2024-03-22T03:08:20;10.50;99.90
21310;DHT22;10814;51.722;8.772;2024-03-22T03:10:45;10.50;99.90
21310;DHT22;10814;51.722;8.772;2024-03-22T03:13:11;10.50;99.90
21310;DHT22;10814;51.722;8.772;2024-03-22T03:15:36;10.60;99.90
21310;DHT22;10814;51.722;8.772;2024-03-22T03:18:02;10.50;99.90
21310;DHT22;10814;51.722;8.772;2024-03-22T03:20:28;10.50;99.90
21310;DHT22;10814;51.722;8.772;2024-03-22T03:22:53;10.60;99.90
21310;DHT22;10814;51.722;8.772;2024-03-22T03:25:19;10.60;99.90
21310;DHT22;10814;51.722;8.772;2024-03-22T03:27:45;10.60;99.90
21310;DHT22;10814;51.722;8.772;2024-03-22T03:30:10;10.60;99.90
21310;DHT22;10814;51.722;8.772;2024-03-22T03:32:36;10.60;99.90
21310;DHT22;10814;51.722;8.772;2024-03-22T03:35:02;10.70;99.90
21310;DHT22;10814;51.722;8.772;2024-03-22T03:37:27;10.60;99.90
21310;DHT22;10814;51.722;8.772;2024-03-22T03:39:53;10.60;99.90
21310;DHT22;10814;51.722;8.772;2024-03-22T03:42:18;10.70;99.90
21310;DHT22;10814;51.722;8.772;2024-03-22T03:44:44;10.60;99.90
21310;DHT22;10814;51.722;8.772;2024-03-22T03:47:09;10.70;99.90
21310;DHT22;10814;51.722;8.772;2024-03-22T03:49:35;10.70;99.90
21310;DHT22;10814;51.722;8.772;2024-03-22T03:52:01;10.60;99.90
21310;DHT22;10814;51.722;8.772;2024-03-22T03:54:26;10.70;99.90
21310;DHT22;10814;51.722;8.772;2024-03-22T03:56:52;10.70;99.90
21310;DHT22;10814;51.722;8.772;2024-03-22T03:59:17;10.70;99.90
21310;DHT22;10814;51.722;8.772;2024-03-22T04:01:43;10.70;99.90
21310;DHT22;10814;51.722;8.772;2024-03-22T04:04:08;10.70;99.90
21310;DHT22;10814;51.722;8.772;2024-03-22T04:06:34;10.70;99.90
21310;DHT22;10814;51.722;8.772;2024-03-22T04:09:00;10.70;99.90
21310;DHT22;10814;51.722;8.772;2024-03-22T04:11:26;10.70;99.90
21310;DHT22;10814;51.722;8.772;2024-03-22T04:13:51;10.70;99.90
21310;DHT22;10814;51.722;8.772;2024-03-22T04:16:17;10.70;99.90
21310;DHT22;10814;51.722;8.772;2024-03-22T04:18:42;10.70;99.90
21310;DHT22;10814;51.722;8.772;2024-03-22T04:21:08;10.70;99.90
21310;DHT22;10814;51.722;8.772;2024-03-22T04:23:33;10.70;99.90
21310;DHT22;10814;51.722;8.772;2024-03-22T04:26:00;10.70;99.90
21310;DHT22;10814;51.722;8.772;2024-03-22T04:28:27;10.70;99.90
21310;DHT22;10814;51.722;8.772;2024-03-22T04:31:03;10.60;99.90
21310;DHT22;10814;51.722;8.772;2024-03-22T04:33:30;10.60;99.90
21310;DHT22;10814;51.722;8.772;2024-03-22T04:35:56;10.60;99.90
21310;DHT22;10814;51.722;8.772;2024-03-22T04:38:23;10.70;99.90
21310;DHT22;10814;51.722;8.772;2024-03-22T04:40:48;10.70;99.90
21310;DHT22;10814;51.722;8.772;2024-03-22T04:43:15;10.70;99.90
21310;DHT22;10814;51.722;8.772;2024-03-22T04:45:45;10.80;99.90
21310;DHT22;10814;51.722;8.772;2024-03-22T04:48:14;10.80;99.90
21310;DHT22;10814;51.722;8.772;2024-03-22T04:50:39;10.80;99.90
21310;DHT22;10814;51.722;8.772;2024-03-22T04:53:05;10.80;99.90
21310;DHT22;10814;51.722;8.772;2024-03-22T04:55:31;10.90;99.90
21310;DHT22;10814;51.722;8.772;2024-03-22T04:57:58;10.90;99.90
21310;DHT22;10814;51.722;8.772;2024-03-22T05:00:24;10.90;99.90
21310;DHT22;10814;51.722;8.772;2024-03-22T05:02:51;10.90;99.90
21310;DHT22;10814;51.722;8.772;2024-03-22T05:05:16;10.90;99.90
21310;DHT22;10814;51.722;8.772;2024-03-22T05:07:42;10.90;99.90
21310;DHT22;10814;51.722;8.772;2024-03-22T05:10:08;10.90;99.90
21310;DHT22;10814;51.722;8.772;2024-03-22T05:12:35;10.90;99.90
21310;DHT22;10814;51.722;8.772;2024-03-22T05:15:01;10.90;99.90
21310;DHT22;10814;51.722;8.772;2024-03-22T05:17:27;10.90;99.90
21310;DHT22;10814;51.722;8.772;2024-03-22T05:19:53;10.90;99.90
21310;DHT22;10814;51.722;8.772;2024-03-22T05:22:19;10.90;99.90
21310;DHT22;10814;51.722;8.772;2024-03-22T05:24:46;10.90;99.90
21310;DHT22;10814;51.722;8.772;2024-03-22T05:27:11;10.90;99.90
21310;DHT22;10814;51.722;8.772;2024-03-22T05:29:38;10.90;99.90
21310;DHT22;10814;51.722;8.772;2024-03-22T05:32:04;10.90;99.90
21310;DHT22;10814;51.722;8.772;2024-03-22T05:34:29;10.90;99.90
21310;DHT22;10814;51.722;8.772;2024-03-22T05:36:55;10.90;99.90
21310;DHT22;10814;51.722;8.772;2024-03-22T05:39:21;10.90;99.90
21310;DHT22;10814;51.722;8.772;2024-03-22T05:41:46;10.90;99.90
21310;DHT22;10814;51.722;8.772;2024-03-22T05:44:12;10.90;99.90
21310;DHT22;10814;51.722;8.772;2024-03-22T05:46:37;10.90;99.90
21310;DHT22;10814;51.722;8.772;2024-03-22T05:49:03;10.90;99.90
21310;DHT22;10814;51.722;8.772;2024-03-22T05:51:29;10.90;99.90
21310;DHT22;10814;51.722;8.772;2024-03-22T05:53:56;11.00;99.90
21310;DHT22;10814;51.722;8.772;2024-03-22T05:56:22;11.00;99.90
21310;DHT22;10814;51.722;8.772;2024-03-22T05:58:48;11.00;99.90
21310;DHT22;10814;51.722;8.772;2024-03-22T06:01:13;11.00;99.90
21310;DHT22;10814;51.722;8.772;2024-03-22T06:03:39;11.00;99.90
21310;DHT22;10814;51.722;8.772;2024-03-22T06:06:05;11.10;99.90
21310;DHT22;10814;51.722;8.772;2024-03-22T06:08:30;11.10;99.90
21310;DHT22;10814;51.722;8.772;2024-03-22T06:11:00;11.10;99.90
21310;DHT22;10814;51.722;8.772;2024-03-22T06:13:26;11.20;99.90
21310;DHT22;10814;51.722;8.772;2024-03-22T06:15:51;11.20;99.90
21310;DHT22;10814;51.722;8.772;2024-03-22T06:18:17;11.30;99.90
21310;DHT22;10814;51.722;8.772;2024-03-22T06:20:43;11.30;99.90
21310;DHT22;10814;51.722;8.772;2024-03-22T06:23:09;11.40;99.90
21310;DHT22;10814;51.722;8.772;2024-03-22T06:25:35;11.40;99.90
21310;DHT22;10814;51.722;8.772;2024-03-22T06:28:01;11.40;99.90
21310;DHT22;10814;51.722;8.772;2024-03-22T06:30:26;11.50;99.90
21310;DHT22;10814;51.722;8.772;2024-03-22T06:32:55;11.50;99.90
21310;DHT22;10814;51.722;8.772;2024-03-22T06:35:21;11.50;99.90
21310;DHT22;10814;51.722;8.772;2024-03-22T06:37:47;11.50;99.90
21310;DHT22;10814;51.722;8.772;2024-03-22T06:40:14;11.60;99.90
21310;DHT22;10814;51.722;8.772;2024-03-22T06:42:40;11.60;99.90
21310;DHT22;10814;51.722;8.772;2024-03-22T06:45:06;11.70;99.90
21310;DHT22;10814;51.722;8.772;2024-03-22T06:47:32;11.70;99.90
21310;DHT22;10814;51.722;8.772;2024-03-22T06:49:57;11.80;99.90
21310;DHT22;10814;51.722;8.772;2024-03-22T06:52:23;11.80;99.90
21310;DHT22;10814;51.722;8.772;2024-03-22T06:54:49;11.80;99.90
21310;DHT22;10814;51.722;8.772;2024-03-22T06:57:14;12.00;99.90
21310;DHT22;10814;51.722;8.772;2024-03-22T06:59:40;12.00;99.90
21310;DHT22;10814;51.722;8.772;2024-03-22T07:02:06;12.00;99.90
21310;DHT22;10814;51.722;8.772;2024-03-22T07:04:31;12.10;99.90
21310;DHT22;10814;51.722;8.772;2024-03-22T07:06:57;12.10;99.90
21310;DHT22;10814;51.722;8.772;2024-03-22T07:09:23;12.10;99.90
21310;DHT22;10814;51.722;8.772;2024-03-22T07:11:48;12.20;99.90
21310;DHT22;10814;51.722;8.772;2024-03-22T07:14:14;12.20;99.90
21310;DHT22;10814;51.722;8.772;2024-03-22T07:16:39;12.20;99.90
21310;DHT22;10814;51.722;8.772;2024-03-22T07:19:05;12.20;99.90
21310;DHT22;10814;51.722;8.772;2024-03-22T07:21:31;12.20;99.90
21310;DHT22;10814;51.722;8.772;2024-03-22T07:23:57;12.20;99.90
21310;DHT22;10814;51.722;8.772;2024-03-22T07:26:22;12.30;99.90
21310;DHT22;10814;51.722;8.772;2024-03-22T07:28:48;12.30;99.90
21310;DHT22;10814;51.722;8.772;2024-03-22T07:31:13;12.40;99.90
21310;DHT22;10814;51.722;8.772;2024-03-22T07:33:39;12.40;99.90
21310;DHT22;10814;51.722;8.772;2024-03-22T07:36:05;12.50;99.90
21310;DHT22;10814;51.722;8.772;2024-03-22T07:38:31;12.50;99.90
21310;DHT22;10814;51.722;8.772;2024-03-22T07:40:57;12.60;99.90
21310;DHT22;10814;51.722;8.772;2024-03-22T07:43:22;12.60;99.90
21310;DHT22;10814;51.722;8.772;2024-03-22T07:45:48;12.60;99.90
21310;DHT22;10814;51.722;8.772;2024-03-22T07:48:14;12.70;99.90
21310;DHT22;10814;51.722;8.772;2024-03-22T07:50:40;12.70;99.90
21310;DHT22;10814;51.722;8.772;2024-03-22T07:53:05;12.80;99.90
21310;DHT22;10814;51.722;8.772;2024-03-22T07:55:31;12.80;99.90
21310;DHT22;10814;51.722;8.772;2024-03-22T07:57:59;12.80;99.90
21310;DHT22;10814;51.722;8.772;2024-03-22T08:00:25;12.90;99.90
21310;DHT22;10814;51.722;8.772;2024-03-22T08:02:53;12.90;99.90
21310;DHT22;10814;51.722;8.772;2024-03-22T08:05:20;12.90;99.90
21310;DHT22;10814;51.722;8.772;2024-03-22T08:07:45;12.90;99.90
21310;DHT22;10814;51.722;8.772;2024-03-22T08:10:11;13.00;99.90
21310;DHT22;10814;51.722;8.772;2024-03-22T08:12:37;13.00;99.90
21310;DHT22;10814;51.722;8.772;2024-03-22T08:15:03;13.00;99.90
21310;DHT22;10814;51.722;8.772;2024-03-22T08:17:29;13.10;99.90
21310;DHT22;10814;51.722;8.772;2024-03-22T08:19:54;13.10;99.90
21310;DHT22;10814;51.722;8.772;2024-03-22T08:22:20;13.10;99.90
21310;DHT22;10814;51.722;8.772;2024-03-22T08:24:45;13.10;99.90
21310;DHT22;10814;51.722;8.772;2024-03-22T08:27:11;13.10;99.90
21310;DHT22;10814;51.722;8.772;2024-03-22T08:29:37;13.20;99.90
21310;DHT22;10814;51.722;8.772;2024-03-22T08:32:04;13.30;99.90
21310;DHT22;10814;51.722;8.772;2024-03-22T08:34:30;13.30;99.90
21310;DHT22;10814;51.722;8.772;2024-03-22T08:36:57;13.40;99.90
21310;DHT22;10814;51.722;8.772;2024-03-22T08:39:23;13.40;99.90
21310;DHT22;10814;51.722;8.772;2024-03-22T08:41:50;13.40;99.90
21310;DHT22;10814;51.722;8.772;2024-03-22T08:44:16;13.50;99.90
21310;DHT22;10814;51.722;8.772;2024-03-22T08:46:42;13.50;99.90
21310;DHT22;10814;51.722;8.772;2024-03-22T08:49:07;13.60;99.90
21310;DHT22;10814;51.722;8.772;2024-03-22T08:51:33;13.70;99.90
21310;DHT22;10814;51.722;8.772;2024-03-22T08:53:59;13.70;99.90
21310;DHT22;10814;51.722;8.772;2024-03-22T08:56:26;13.70;99.90
21310;DHT22;10814;51.722;8.772;2024-03-22T08:58:51;13.80;99.90
21310;DHT22;10814;51.722;8.772;2024-03-22T09:01:17;13.80;99.90
21310;DHT22;10814;51.722;8.772;2024-03-22T09:03:43;13.80;99.90
21310;DHT22;10814;51.722;8.772;2024-03-22T09:06:12;13.80;99.90
21310;DHT22;10814;51.722;8.772;2024-03-22T09:08:37;13.80;99.90
21310;DHT22;10814;51.722;8.772;2024-03-22T09:11:03;13.80;99.90
21310;DHT22;10814;51.722;8.772;2024-03-22T09:13:29;13.80;99.90
21310;DHT22;10814;51.722;8.772;2024-03-22T09:15:58;13.90;99.90
21310;DHT22;10814;51.722;8.772;2024-03-22T09:18:24;14.10;99.90
21310;DHT22;10814;51.722;8.772;2024-03-22T09:20:49;14.20;99.90
21310;DHT22;10814;51.722;8.772;2024-03-22T09:23:15;14.30;99.90
21310;DHT22;10814;51.722;8.772;2024-03-22T09:25:40;14.40;99.90
21310;DHT22;10814;51.722;8.772;2024-03-22T09:28:06;14.50;99.90
21310;DHT22;10814;51.722;8.772;2024-03-22T09:30:32;14.70;99.90
21310;DHT22;10814;51.722;8.772;2024-03-22T09:32:58;14.80;99.90
21310;DHT22;10814;51.722;8.772;2024-03-22T09:35:23;14.90;99.90
21310;DHT22;10814;51.722;8.772;2024-03-22T09:37:49;15.00;99.90
21310;DHT22;10814;51.722;8.772;2024-03-22T09:40:14;15.10;99.90
21310;DHT22;10814;51.722;8.772;2024-03-22T09:42:41;15.30;99.90
21310;DHT22;10814;51.722;8.772;2024-03-22T09:45:11;15.30;99.90
21310;DHT22;10814;51.722;8.772;2024-03-22T09:47:37;15.40;99.90
21310;DHT22;10814;51.722;8.772;2024-03-22T09:50:06;15.50;99.90
21310;DHT22;10814;51.722;8.772;2024-03-22T09:52:33;15.80;99.90
21310;DHT22;10814;51.722;8.772;2024-03-22T09:54:59;16.00;99.90
21310;DHT22;10814;51.722;8.772;2024-03-22T09:57:26;16.10;99.90
21310;DHT22;10814;51.722;8.772;2024-03-22T09:59:52;15.70;99.90
21310;DHT22;10814;51.722;8.772;2024-03-22T10:02:18;15.40;99.90
21310;DHT22;10814;51.722;8.772;2024-03-22T10:04:44;15.40;99.90
21310;DHT22;10814;51.722;8.772;2024-03-22T10:07:10;15.30;99.90
21310;DHT22;10814;51.722;8.772;2024-03-22T10:09:36;15.20;99.90
21310;DHT22;10814;51.722;8.772;2024-03-22T10:12:02;15.30;99.90
21310;DHT22;10814;51.722;8.772;2024-03-22T10:14:29;15.40;99.90
21310;DHT22;10814;51.722;8.772;2024-03-22T10:16:56;15.30;99.90
21310;DHT22;10814;51.722;8.772;2024-03-22T10:19:22;15.30;99.90
21310;DHT22;10814;51.722;8.772;2024-03-22T10:22:02;15.30;99.90
21310;DHT22;10814;51.722;8.772;2024-03-22T10:24:31;15.10;99.90
21310;DHT22;10814;51.722;8.772;2024-03-22T10:26:58;15.20;99.90
21310;DHT22;10814;51.722;8.772;2024-03-22T10:29:24;15.10;99.90
21310;DHT22;10814;51.722;8.772;2024-03-22T10:31:55;15.00;99.90
21310;DHT22;10814;51.722;8.772;2024-03-22T10:34:21;15.00;99.90
21310;DHT22;10814;51.722;8.772;2024-03-22T10:36:48;14.90;99.90
21310;DHT22;10814;51.722;8.772;2024-03-22T10:39:17;15.00;99.90
21310;DHT22;10814;51.722;8.772;2024-03-22T10:41:47;14.90;99.90
21310;DHT22;10814;51.722;8.772;2024-03-22T10:44:14;14.70;99.90
21310;DHT22;10814;51.722;8.772;2024-03-22T10:46:43;14.80;99.90
21310;DHT22;10814;51.722;8.772;2024-03-22T10:49:11;14.80;99.90
21310;DHT22;10814;51.722;8.772;2024-03-22T10:51:40;15.00;99.90
21310;DHT22;10814;51.722;8.772;2024-03-22T10:54:08;15.10;99.90
21310;DHT22;10814;51.722;8.772;2024-03-22T10:56:34;15.10;99.90
21310;DHT22;10814;51.722;8.772;2024-03-22T10:59:03;15.30;99.90
21310;DHT22;10814;51.722;8.772;2024-03-22T11:01:31;15.50;99.90
21310;DHT22;10814;51.722;8.772;2024-03-22T11:04:05;15.80;99.90
21310;DHT22;10814;51.722;8.772;2024-03-22T11:06:39;16.00;99.90
21310;DHT22;10814;51.722;8.772;2024-03-22T11:09:04;16.00;99.90
21310;DHT22;10814;51.722;8.772;2024-03-22T11:11:30;16.10;99.90
21310;DHT22;10814;51.722;8.772;2024-03-22T11:13:57;16.30;99.90
21310;DHT22;10814;51.722;8.772;2024-03-22T11:16:23;16.60;99.90
21310;DHT22;10814;51.722;8.772;2024-03-22T11:18:49;16.70;99.90
21310;DHT22;10814;51.722;8.772;2024-03-22T11:21:15;16.90;99.90
21310;DHT22;10814;51.722;8.772;2024-03-22T11:23:40;17.00;99.90
21310;DHT22;10814;51.722;8.772;2024-03-22T11:26:06;17.40;99.90
21310;DHT22;10814;51.722;8.772;2024-03-22T11:28:34;17.50;99.90
21310;DHT22;10814;51.722;8.772;2024-03-22T11:30:59;17.50;99.90
21310;DHT22;10814;51.722;8.772;2024-03-22T11:33:25;17.50;99.90
21310;DHT22;10814;51.722;8.772;2024-03-22T11:35:54;17.60;99.90
21310;DHT22;10814;51.722;8.772;2024-03-22T11:38:19;17.90;99.90
21310;DHT22;10814;51.722;8.772;2024-03-22T11:40:46;18.10;99.90
21310;DHT22;10814;51.722;8.772;2024-03-22T11:43:13;18.40;99.90
21310;DHT22;10814;51.722;8.772;2024-03-22T11:45:41;18.30;99.90
21310;DHT22;10814;51.722;8.772;2024-03-22T11:48:08;18.20;99.90
21310;DHT22;10814;51.722;8.772;2024-03-22T11:50:37;18.10;99.90
21310;DHT22;10814;51.722;8.772;2024-03-22T11:53:05;18.00;99.90
21310;DHT22;10814;51.722;8.772;2024-03-22T11:55:31;17.90;99.90
21310;DHT22;10814;51.722;8.772;2024-03-22T11:58:00;17.70;99.90
21310;DHT22;10814;51.722;8.772;2024-03-22T12:00:25;17.60;99.90
21310;DHT22;10814;51.722;8.772;2024-03-22T12:02:53;17.40;99.90
21310;DHT22;10814;51.722;8.772;2024-03-22T12:05:19;17.20;99.90
21310;DHT22;10814;51.722;8.772;2024-03-22T12:07:45;17.10;99.90
21310;DHT22;10814;51.722;8.772;2024-03-22T12:10:11;16.80;99.90
21310;DHT22;10814;51.722;8.772;2024-03-22T12:12:37;16.70;99.90
21310;DHT22;10814;51.722;8.772;2024-03-22T12:15:03;16.70;99.90
21310;DHT22;10814;51.722;8.772;2024-03-22T12:17:29;16.60;99.90
21310;DHT22;10814;51.722;8.772;2024-03-22T12:19:55;16.60;99.90
21310;DHT22;10814;51.722;8.772;2024-03-22T12:22:22;16.60;99.90
21310;DHT22;10814;51.722;8.772;2024-03-22T12:24:48;16.50;99.90
21310;DHT22;10814;51.722;8.772;2024-03-22T12:27:13;16.50;99.90
21310;DHT22;10814;51.722;8.772;2024-03-22T12:29:39;16.50;99.90
21310;DHT22;10814;51.722;8.772;2024-03-22T12:32:05;16.40;99.90
21310;DHT22;10814;51.722;8.772;2024-03-22T12:34:32;16.30;99.90
21310;DHT22;10814;51.722;8.772;2024-03-22T12:36:59;16.30;99.90
21310;DHT22;10814;51.722;8.772;2024-03-22T12:39:24;16.40;99.90
21310;DHT22;10814;51.722;8.772;2024-03-22T12:41:53;16.40;99.90
21310;DHT22;10814;51.722;8.772;2024-03-22T12:44:19;16.40;99.90
21310;DHT22;10814;51.722;8.772;2024-03-22T12:46:44;16.30;99.90
21310;DHT22;10814;51.722;8.772;2024-03-22T12:49:11;16.30;99.90
21310;DHT22;10814;51.722;8.772;2024-03-22T12:51:37;16.30;99.90
21310;DHT22;10814;51.722;8.772;2024-03-22T12:54:03;16.40;99.90
21310;DHT22;10814;51.722;8.772;2024-03-22T12:56:30;16.30;99.90
21310;DHT22;10814;51.722;8.772;2024-03-22T12:58:55;16.20;99.90
21310;DHT22;10814;51.722;8.772;2024-03-22T13:01:21;16.20;99.90
21310;DHT22;10814;51.722;8.772;2024-03-22T13:03:47;16.20;99.90
21310;DHT22;10814;51.722;8.772;2024-03-22T13:06:13;16.10;99.90
21310;DHT22;10814;51.722;8.772;2024-03-22T13:08:38;16.20;99.90
21310;DHT22;10814;51.722;8.772;2024-03-22T13:11:04;16.20;99.90
21310;DHT22;10814;51.722;8.772;2024-03-22T13:13:30;16.10;99.90
21310;DHT22;10814;51.722;8.772;2024-03-22T13:15:59;16.10;99.90
21310;DHT22;10814;51.722;8.772;2024-03-22T13:18:27;16.00;99.90
21310;DHT22;10814;51.722;8.772;2024-03-22T13:20:54;15.90;99.90
21310;DHT22;10814;51.722;8.772;2024-03-22T13:23:20;15.80;99.90
21310;DHT22;10814;51.722;8.772;2024-03-22T13:25:45;15.80;99.90
21310;DHT22;10814;51.722;8.772;2024-03-22T13:28:11;15.70;99.90
21310;DHT22;10814;51.722;8.772;2024-03-22T13:30:36;15.60;99.90
21310;DHT22;10814;51.722;8.772;2024-03-22T13:33:03;15.50;99.90
21310;DHT22;10814;51.722;8.772;2024-03-22T13:35:29;15.40;99.90
21310;DHT22;10814;51.722;8.772;2024-03-22T13:37:55;15.40;99.90
21310;DHT22;10814;51.722;8.772;2024-03-22T13:40:21;15.40;99.90
21310;DHT22;10814;51.722;8.772;2024-03-22T13:42:46;15.30;99.90
21310;DHT22;10814;51.722;8.772;2024-03-22T13:45:12;15.10;99.90
21310;DHT22;10814;51.722;8.772;2024-03-22T13:47:38;15.00;99.90
21310;DHT22;10814;51.722;8.772;2024-03-22T13:50:06;14.90;99.90
21310;DHT22;10814;51.722;8.772;2024-03-22T13:52:33;14.80;99.90
21310;DHT22;10814;51.722;8.772;2024-03-22T13:55:00;14.80;99.90
21310;DHT22;10814;51.722;8.772;2024-03-22T13:57:26;14.70;99.90
21310;DHT22;10814;51.722;8.772;2024-03-22T13:59:52;14.70;99.90
21310;DHT22;10814;51.722;8.772;2024-03-22T14:02:18;14.60;99.90
21310;DHT22;10814;51.722;8.772;2024-03-22T14:04:45;14.50;99.90
21310;DHT22;10814;51.722;8.772;2024-03-22T14:07:10;14.50;99.90
21310;DHT22;10814;51.722;8.772;2024-03-22T14:09:36;14.50;99.90
21310;DHT22;10814;51.722;8.772;2024-03-22T14:12:02;14.50;99.90
21310;DHT22;10814;51.722;8.772;2024-03-22T14:14:28;14.40;99.90
21310;DHT22;10814;51.722;8.772;2024-03-22T14:16:54;14.40;99.90
21310;DHT22;10814;51.722;8.772;2024-03-22T14:19:20;14.40;99.90
21310;DHT22;10814;51.722;8.772;2024-03-22T14:21:46;14.30;99.90
21310;DHT22;10814;51.722;8.772;2024-03-22T14:24:12;14.30;99.90
21310;DHT22;10814;51.722;8.772;2024-03-22T14:26:38;14.30;99.90
21310;DHT22;10814;51.722;8.772;2024-03-22T14:29:10;14.10;99.90
21310;DHT22;10814;51.722;8.772;2024-03-22T14:31:38;14.10;99.90
21310;DHT22;10814;51.722;8.772;2024-03-22T14:34:13;14.10;99.90
21310;DHT22;10814;51.722;8.772;2024-03-22T14:36:38;14.10;99.90
21310;DHT22;10814;51.722;8.772;2024-03-22T14:39:04;14.10;99.90
21310;DHT22;10814;51.722;8.772;2024-03-22T14:41:32;14.10;99.90
21310;DHT22;10814;51.722;8.772;2024-03-22T14:43:57;14.10;99.90
21310;DHT22;10814;51.722;8.772;2024-03-22T14:46:23;14.10;99.90
21310;DHT22;10814;51.722;8.772;2024-03-22T14:48:54;14.00;99.90
21310;DHT22;10814;51.722;8.772;2024-03-22T14:51:23;13.90;99.90
21310;DHT22;10814;51.722;8.772;2024-03-22T14:53:49;13.90;99.90
21310;DHT22;10814;51.722;8.772;2024-03-22T14:56:14;13.80;99.90
21310;DHT22;10814;51.722;8.772;2024-03-22T14:58:43;13.80;99.90
21310;DHT22;10814;51.722;8.772;2024-03-22T15:01:09;13.80;99.90
21310;DHT22;10814;51.722;8.772;2024-03-22T15:03:35;13.70;99.90
21310;DHT22;10814;51.722;8.772;2024-03-22T15:06:01;13.70;99.90
21310;DHT22;10814;51.722;8.772;2024-03-22T15:08:27;13.80;99.90
21310;DHT22;10814;51.722;8.772;2024-03-22T15:10:56;13.70;99.90
21310;DHT22;10814;51.722;8.772;2024-03-22T15:13:22;13.60;99.90
21310;DHT22;10814;51.722;8.772;2024-03-22T15:15:55;13.50;99.90
21310;DHT22;10814;51.722;8.772;2024-03-22T15:18:21;13.50;99.90
21310;DHT22;10814;51.722;8.772;2024-03-22T15:20:47;13.50;99.90
21310;DHT22;10814;51.722;8.772;2024-03-22T15:23:14;13.40;99.90